Remember me | Login Problem | Lost Password | Contact Us | Help

Search Foreclosures & For Sale by Owner Properties

Glossary Blog
 1-30 31-60 61-90 91-120 121-150 151-180 181-210 211-240 241-270 271-300... next »
Real Estate Listing Results 1-30 of 47193
Last Update Detailstip Pic Status City Street Zip Auction Date Mortgage Balance Due Zestimate B/Z%Type
12-08-2017 Details  AuctionMUNDELEINTEMPLETON CT6006003-06-2018223,379222,181204,811+8SF
12-08-2017 Details  AuctionWAUKEGANWAINLOW AVE6008501-09-2018334,00027,47456,920-52SF
12-08-2017 Details  AuctionROUND LAKE PARKARBOR DR6007301-23-2018155,295171,449146,172+17SF
12-08-2017 Details  CanceledLAKE ZURICHN COTTAGE RD6004712-19-2017240,000298,342260,352+15SF
12-08-2017 Details  CanceledROUND LAKE PARKN FAIRLAWN DR6007312-12-2017106,981158,44295,438+66SF
12-08-2017 Details  AuctionZIONEZRA AVE6009903-06-2018173,050227,592130,107+75SF
12-08-2017 Details CanceledZIONHILL DR6009912-12-2017184,000183,943167,233+10SF
12-07-2017 Details  PreforeclosureLAKE FORESTW WESTLEIGH RD60045862,500846,4361,334,602-37SF
12-07-2017 Details  PreforeclosureINGLESIDEN GROVE AVE60041135,581132,77071,088+87SF
12-07-2017 Details  PreforeclosureINGLESIDEW TREETOP RD60041322,500194,135295,724-34SF
12-07-2017 Details  PreforeclosureLAKE VILLAE PARK LANE6004696,71594,075124,396-24SF
12-07-2017 Details  PreforeclosureMUNDELEINN PERSHING AVE60060184,500151,896151,048+1SF
12-07-2017 Details  PreforeclosureLAKE FORESTN LONGWOOD RD60045321,150259,530646,161-60SF
12-07-2017 Details  PreforeclosureLONG GROVELONG GROVE RD60047456,900463,909386,212+20SF
12-07-2017 Details  PreforeclosureLINDENHURSTTHRUST CIRCLE60046180,000156,283250,342-38SF
12-07-2017 Details  PreforeclosureLAKE FORESTN WAUKEGAN60045270,000265,552SF
12-07-2017 Details  PreforeclosureGURNEECHASE CT60031187,50081,597116,846-30TWH
12-07-2017 Details  PreforeclosureANTIOCHTREVINO LN60002275,967250,571253,804-1CONST
12-07-2017 Details  PreforeclosureGURNEEGAMEY CT60031251,212210,143288,265-27SF
12-07-2017 Details  PreforeclosureFOX LAKECROSS ST60020147,364140,408249,446-44SF
12-07-2017 Details  PreforeclosureROUND LAKE BEACHN BARBERRY RD6007378,59975,654131,005-42CON
12-07-2017 Details  PreforeclosureGRAYSLAKENORMANDY LN60030158,200143,479175,147-18SF
12-07-2017 Details  PreforeclosureWAUKEGANW ATLANTIC AVE60085116,700143,282150,614-5SF
12-07-2017 Details  PreforeclosureWAUKEGANLLOYD AVE6008572,65968,238126,153-46SF
12-07-2017 Details  PreforeclosureNORTH CHICAGOLEWIS AVE6006471,04069,15175,315-8SF
12-07-2017 Details  PreforeclosureZIONCALVARY LN60099173,517165,097120,814+37SF
12-07-2017 Details  PreforeclosureLAKE BLUFFW SMITH AVE60044255,983154,819251,280-38CONST
12-07-2017 Details  PreforeclosureROUND LAKEHAVENWOOD DR60073171,830152,520SF
12-07-2017 Details  PreforeclosureLIBERTYVILLEW LAKE ST6004847,50034,248308,272-89SF
12-07-2017 Details  PreforeclosureROUND LAKEGLENWOOD DR6007377,00075,96867,973+12SF
 1-30 31-60 61-90 91-120 121-150 151-180 181-210 211-240 241-270 271-300... next »